West Palm Beach, Florida
Current Conditions -  °F | °C
As of 9:53 PM on Sunday 21 Dec 2014 (Local Time) from KPBI Reporting Station
Broken Clouds Broken Clouds  
Wind Chill: 73°   Ceiling: 25000
Heat Index: 73°   Visibility: 10mi
Dew Point: 64°   Wind: 6mph
Humidity: 73%   Direction: 130°SE
Pressure: 30.04"   Gusts: NA
Location:  26.71°N, 80.05°W
Report Text: KPBI 220253Z 13005KT 10SM FEW027 SCT120 BKN250 23/18 A3004 RMK AO2 SLP173 T02280178 53002
Loading
Personal Weather Stations






























Interactive Weather Map New forecast layout! Learn more

10-Day Weather Forecast

Advertisements
Track Severe Weather on mobile